createdAt,value
2023-06-22T03:31:31.369Z,4.45
2023-06-22T03:33:59.084Z,4.13
2023-06-22T03:36:27.718Z,4.55
2023-06-22T03:38:54.948Z,4.53
2023-06-22T03:41:22.242Z,4.65
2023-06-22T03:43:50.126Z,4.30
2023-06-22T03:46:17.711Z,4.68
2023-06-22T03:48:44.878Z,4.78
2023-06-22T03:51:12.025Z,4.28
2023-06-22T03:53:39.138Z,4.68
2023-06-22T03:56:06.288Z,5.80
2023-06-22T03:58:34.758Z,4.97
2023-06-22T04:01:01.955Z,4.80
2023-06-22T04:03:29.166Z,4.80
2023-06-22T04:05:56.393Z,5.38
2023-06-22T04:08:23.459Z,4.85
2023-06-22T04:10:50.758Z,4.85
2023-06-22T04:13:17.840Z,4.75
2023-06-22T04:15:44.905Z,5.38
2023-06-22T04:18:12.091Z,5.28
2023-06-22T04:20:39.264Z,5.30
2023-06-22T04:23:06.327Z,6.18
2023-06-22T04:25:33.376Z,5.53
2023-06-22T04:28:00.539Z,5.70
2023-06-22T04:30:27.833Z,6.32
2023-06-22T04:32:59.090Z,6.75
2023-06-22T04:35:26.379Z,6.78
2023-06-22T04:37:56.470Z,6.10
2023-06-22T04:40:24.234Z,5.68
2023-06-22T04:42:55.020Z,6.20
2023-06-22T04:45:22.529Z,5.72
2023-06-22T04:47:50.114Z,6.80
2023-06-22T04:50:18.475Z,6.00
2023-06-22T04:52:46.755Z,6.00
2023-06-22T04:55:15.638Z,6.43
2023-06-22T04:57:49.337Z,6.22
2023-06-22T05:00:20.751Z,5.63
2023-06-22T05:02:47.975Z,6.30
2023-06-22T05:05:15.605Z,6.82
2023-06-22T05:07:44.448Z,7.15
2023-06-22T05:10:13.454Z,7.05
2023-06-22T05:12:41.544Z,6.88
2023-06-22T05:15:09.216Z,7.32
2023-06-22T05:17:36.836Z,7.22
2023-06-22T05:20:07.511Z,8.38
2023-06-22T05:22:35.047Z,7.28
2023-06-22T05:25:02.085Z,7.15
2023-06-22T05:27:29.339Z,6.93
2023-06-22T05:29:56.468Z,7.20
2023-06-22T05:32:23.826Z,7.00
2023-06-22T05:34:51.122Z,6.93
2023-06-22T05:37:18.372Z,7.45
2023-06-22T05:39:45.624Z,7.00
2023-06-22T05:42:12.723Z,6.93
2023-06-22T05:44:41.859Z,7.40
2023-06-22T05:47:11.786Z,6.90
2023-06-22T05:49:38.830Z,6.70
2023-06-22T05:52:06.017Z,6.45
2023-06-22T05:54:33.133Z,6.72
2023-06-22T05:57:00.191Z,5.75
2023-06-22T05:59:27.261Z,5.50
2023-06-22T06:01:54.649Z,5.47
2023-06-22T06:04:22.080Z,5.35
2023-06-22T06:06:49.319Z,5.75
2023-06-22T06:09:16.516Z,5.18
2023-06-22T06:11:44.102Z,5.40
2023-06-22T06:14:11.572Z,5.00
2023-06-22T06:16:38.818Z,4.32
2023-06-22T06:19:05.997Z,4.00
2023-06-22T06:21:33.167Z,4.13
2023-06-22T06:24:00.615Z,4.30
2023-06-22T06:26:30.956Z,4.13
2023-06-22T06:31:26.141Z,3.85
2023-06-22T06:33:55.065Z,3.85
2023-06-22T06:36:22.324Z,3.70
2023-06-22T06:38:49.384Z,3.80
2023-06-22T06:41:17.777Z,3.45
2023-06-22T06:43:44.988Z,3.67
2023-06-22T06:46:12.551Z,3.72
2023-06-22T06:48:40.906Z,3.10
2023-06-22T06:51:10.575Z,3.22
2023-06-22T06:53:39.397Z,3.08
2023-06-22T06:56:08.236Z,3.25
2023-06-22T06:58:35.371Z,3.20
2023-06-22T07:01:02.509Z,3.58
2023-06-22T07:03:29.608Z,3.20
2023-06-22T07:05:56.924Z,2.80
2023-06-22T07:08:24.380Z,3.15
2023-06-22T07:10:52.104Z,2.90
2023-06-22T07:13:19.251Z,3.08
2023-06-22T07:15:46.519Z,2.90
2023-06-22T07:18:14.657Z,2.90
2023-06-22T07:20:42.999Z,2.80
2023-06-22T07:23:10.076Z,3.25
2023-06-22T07:25:37.194Z,4.03
2023-06-22T07:28:06.121Z,3.22
2023-06-22T07:30:34.377Z,3.00
2023-06-22T07:33:05.776Z,2.97
2023-06-22T07:35:33.034Z,3.47
2023-06-22T07:38:03.158Z,3.80
2023-06-22T07:40:32.806Z,3.03
2023-06-22T07:43:00.185Z,3.50
2023-06-22T07:45:27.420Z,3.00
2023-06-22T07:47:54.575Z,3.30
2023-06-22T07:50:21.785Z,3.03
2023-06-22T07:52:49.416Z,3.38
2023-06-22T07:55:17.153Z,3.10
2023-06-22T07:57:44.265Z,3.38
2023-06-22T08:00:16.015Z,3.53
2023-06-22T08:02:45.689Z,2.80
2023-06-22T08:05:21.070Z,4.10
2023-06-22T08:10:22.841Z,3.78
2023-06-22T08:12:49.931Z,3.75
2023-06-22T08:15:17.057Z,3.88
2023-06-22T08:17:45.520Z,3.25
2023-06-22T08:20:16.097Z,3.80
2023-06-22T08:22:44.084Z,3.53
2023-06-22T08:25:11.589Z,3.50
2023-06-22T08:27:38.788Z,3.85
2023-06-22T08:30:06.594Z,3.13
2023-06-22T08:32:36.705Z,3.33
2023-06-22T08:35:04.432Z,3.67
2023-06-22T08:37:32.417Z,3.92
2023-06-22T08:40:09.443Z,3.58
2023-06-22T08:42:37.267Z,3.80
2023-06-22T08:45:05.922Z,3.97
2023-06-22T08:47:35.802Z,3.95
2023-06-22T08:50:04.680Z,3.80
2023-06-22T08:52:32.546Z,4.57
2023-06-22T08:54:59.877Z,3.78
2023-06-22T08:57:27.550Z,3.80
2023-06-22T08:59:54.736Z,3.85
2023-06-22T09:02:22.479Z,3.92
2023-06-22T09:04:51.432Z,3.72
2023-06-22T09:07:23.657Z,4.40
2023-06-22T09:09:51.089Z,3.85
2023-06-22T09:12:21.108Z,3.80
2023-06-22T09:14:48.282Z,4.00
2023-06-22T09:17:15.455Z,4.25
2023-06-22T09:19:43.710Z,4.30
2023-06-22T09:22:12.918Z,4.18
2023-06-22T09:24:40.003Z,4.78
2023-06-22T09:27:07.063Z,3.58
2023-06-22T09:29:36.878Z,3.95
2023-06-22T09:32:04.478Z,4.00
2023-06-22T09:34:32.718Z,3.45
2023-06-22T09:37:01.916Z,4.20
2023-06-22T09:39:29.347Z,3.65
2023-06-22T09:41:56.496Z,4.30
2023-06-22T09:44:23.590Z,3.80
2023-06-22T09:46:50.646Z,3.97
2023-06-22T09:49:17.842Z,4.60
2023-06-22T09:51:45.014Z,4.20
2023-06-22T09:54:12.090Z,4.05
2023-06-22T09:56:39.635Z,4.43
2023-06-22T09:59:17.724Z,4.22
2023-06-22T10:01:46.048Z,4.03
2023-06-22T10:04:13.424Z,4.28
2023-06-22T10:06:41.953Z,4.00
2023-06-22T10:09:09.444Z,4.57
2023-06-22T10:11:36.825Z,3.85
2023-06-22T10:14:05.352Z,4.50
2023-06-22T10:16:32.864Z,3.83
2023-06-22T10:19:00.034Z,4.10
2023-06-22T10:21:28.652Z,3.80
2023-06-22T10:23:56.774Z,4.03
2023-06-22T10:26:23.884Z,4.15
2023-06-22T10:28:57.517Z,3.88
2023-06-22T10:31:28.647Z,4.03
2023-06-22T10:33:56.184Z,5.15
2023-06-22T10:36:23.638Z,4.32
2023-06-22T10:38:50.844Z,4.03
2023-06-22T10:41:18.405Z,3.90
2023-06-22T10:43:45.461Z,4.22
2023-06-22T10:46:12.518Z,4.30
2023-06-22T10:48:39.584Z,4.03
2023-06-22T10:51:06.895Z,4.30
2023-06-22T10:53:33.976Z,4.70
2023-06-22T10:56:01.567Z,3.65
2023-06-22T10:58:28.878Z,3.90
2023-06-22T11:00:56.085Z,4.22
2023-06-22T11:03:23.259Z,4.32
2023-06-22T11:05:50.734Z,4.13
2023-06-22T11:08:18.047Z,4.47
2023-06-22T11:10:45.188Z,4.18
2023-06-22T11:13:12.429Z,4.00
2023-06-22T11:15:40.391Z,4.00
2023-06-22T11:18:08.678Z,4.10
2023-06-22T11:20:40.019Z,4.10
2023-06-22T11:23:08.551Z,3.70
2023-06-22T11:25:39.515Z,5.15
2023-06-22T11:28:06.649Z,3.97
2023-06-22T11:30:33.832Z,4.68
2023-06-22T11:33:01.244Z,3.95
2023-06-22T11:35:28.480Z,4.25
2023-06-22T11:37:57.285Z,3.92
2023-06-22T11:40:24.639Z,4.28
2023-06-22T11:42:51.728Z,4.50
2023-06-22T11:45:19.410Z,4.82
2023-06-22T11:47:46.493Z,5.13
2023-06-22T11:50:14.115Z,4.35
2023-06-22T11:52:41.273Z,4.28
2023-06-22T11:55:09.091Z,5.15
2023-06-22T11:57:40.089Z,4.10
2023-06-22T12:00:15.337Z,4.25
2023-06-22T12:02:42.499Z,4.68
2023-06-22T12:05:09.768Z,4.85
2023-06-22T12:07:36.872Z,4.95
2023-06-22T12:10:04.160Z,4.38
2023-06-22T12:12:31.226Z,4.45
2023-06-22T12:14:58.287Z,4.38
2023-06-22T12:17:25.798Z,4.93
2023-06-22T12:19:52.948Z,4.22
2023-06-22T12:22:20.107Z,4.32
2023-06-22T12:24:47.245Z,4.95
2023-06-22T12:27:17.700Z,4.50
2023-06-22T12:29:46.878Z,4.95
2023-06-22T12:32:14.959Z,5.00
2023-06-22T12:34:43.317Z,4.93
2023-06-22T12:37:10.597Z,4.55
2023-06-22T12:39:37.918Z,4.63
2023-06-22T12:42:05.575Z,3.80
2023-06-22T12:44:32.675Z,4.40
2023-06-22T12:46:59.721Z,4.55
2023-06-22T12:49:26.826Z,4.22
2023-06-22T12:51:53.881Z,4.93
2023-06-22T12:54:20.990Z,4.40
2023-06-22T12:56:48.261Z,3.92
2023-06-22T12:59:15.512Z,4.38
2023-06-22T13:01:42.681Z,4.72
2023-06-22T13:04:12.281Z,4.10
2023-06-22T13:06:39.346Z,4.25
2023-06-22T13:09:20.793Z,4.45
2023-06-22T13:11:48.783Z,5.03
2023-06-22T13:14:17.366Z,4.78
2023-06-22T13:16:44.674Z,4.82
2023-06-22T13:19:11.752Z,4.28
2023-06-22T13:21:38.883Z,4.43
2023-06-22T13:24:07.552Z,4.22
2023-06-22T13:26:34.799Z,4.95
2023-06-22T13:29:01.851Z,4.13
2023-06-22T13:31:28.986Z,4.95
2023-06-22T13:33:56.118Z,4.53
2023-06-22T13:36:24.483Z,5.18
2023-06-22T13:38:51.548Z,5.15
2023-06-22T13:41:18.634Z,4.50
2023-06-22T13:43:45.694Z,4.47
2023-06-22T13:46:13.062Z,4.60
2023-06-22T13:48:40.727Z,4.13
2023-06-22T13:51:08.086Z,4.47
2023-06-22T13:53:35.126Z,4.75
2023-06-22T13:56:02.258Z,4.13
2023-06-22T13:58:29.381Z,4.88
2023-06-22T14:00:57.054Z,4.70
2023-06-22T14:03:24.834Z,5.18
2023-06-22T14:05:55.393Z,4.40
2023-06-22T14:10:55.793Z,4.50
2023-06-22T14:13:22.921Z,4.95
2023-06-22T14:15:52.938Z,4.85
2023-06-22T14:20:48.697Z,4.97
2023-06-22T14:23:15.795Z,4.68
2023-06-22T14:25:43.054Z,4.85
2023-06-22T14:28:10.140Z,4.40
2023-06-22T14:30:37.292Z,4.93
2023-06-22T14:33:04.412Z,5.65
2023-06-22T14:35:31.588Z,5.32
2023-06-22T14:37:58.711Z,5.00
2023-06-22T14:40:26.910Z,5.90
2023-06-22T14:42:54.402Z,5.57
2023-06-22T14:45:21.432Z,5.28
2023-06-22T14:47:48.572Z,5.88
2023-06-22T14:50:15.684Z,5.13
2023-06-22T14:52:44.969Z,4.65
2023-06-22T14:55:12.194Z,4.60
2023-06-22T14:57:39.508Z,4.63
2023-06-22T15:00:07.816Z,4.80
2023-06-22T15:02:35.002Z,4.68
2023-06-22T15:05:02.367Z,4.60
2023-06-22T15:07:29.464Z,4.72
2023-06-22T15:09:56.566Z,5.00
2023-06-22T15:12:23.757Z,4.45
2023-06-22T15:14:50.876Z,5.25
2023-06-22T15:17:17.940Z,5.05
2023-06-22T15:19:45.130Z,4.47
2023-06-22T15:22:12.305Z,4.50
2023-06-22T15:24:39.435Z,5.65
2023-06-22T15:27:06.747Z,5.65
2023-06-22T15:29:35.489Z,4.82
2023-06-22T15:32:02.740Z,4.68
2023-06-22T15:34:30.222Z,4.95
2023-06-22T15:36:57.312Z,5.88
2023-06-22T15:39:26.093Z,5.30
2023-06-22T15:41:55.352Z,5.38
2023-06-22T15:44:25.560Z,4.90
2023-06-22T15:46:52.646Z,4.80
2023-06-22T15:49:19.823Z,4.50
2023-06-22T15:51:47.059Z,5.53
2023-06-22T15:54:14.252Z,4.90
2023-06-22T15:56:41.387Z,4.78
2023-06-22T15:59:08.469Z,5.65
2023-06-22T16:01:35.798Z,4.95
2023-06-22T16:04:04.205Z,5.47
2023-06-22T16:06:31.901Z,5.30
2023-06-22T16:08:59.413Z,4.85
2023-06-22T16:11:26.574Z,5.00
2023-06-22T16:13:53.721Z,5.82
2023-06-22T16:16:20.863Z,5.53
2023-06-22T16:18:48.589Z,5.55
2023-06-22T16:21:16.379Z,4.20
2023-06-22T16:23:43.531Z,5.30
2023-06-22T16:26:10.608Z,4.97
2023-06-22T16:28:37.723Z,4.60
2023-06-22T16:31:04.738Z,5.20
2023-06-22T16:33:31.832Z,5.20
2023-06-22T16:35:59.166Z,4.68
2023-06-22T16:38:26.475Z,6.07
2023-06-22T16:40:53.641Z,5.38
2023-06-22T16:43:22.880Z,4.82
2023-06-22T16:45:50.071Z,4.53
2023-06-22T16:48:17.128Z,4.53
2023-06-22T16:50:44.276Z,5.10
2023-06-22T16:53:11.406Z,4.68
2023-06-22T16:55:38.837Z,5.10
2023-06-22T16:58:06.017Z,5.05
2023-06-22T17:00:33.310Z,5.32
2023-06-22T17:03:01.818Z,5.60
2023-06-22T17:05:29.226Z,4.88
2023-06-22T17:07:59.408Z,5.25
2023-06-22T17:10:28.430Z,5.07
2023-06-22T17:12:58.060Z,5.97
2023-06-22T17:15:25.860Z,4.88
2023-06-22T17:17:54.389Z,4.65
2023-06-22T17:20:21.457Z,4.68
2023-06-22T17:22:48.553Z,5.53
2023-06-22T17:25:15.777Z,4.90
2023-06-22T17:27:43.084Z,5.43
2023-06-22T17:30:18.948Z,5.45
2023-06-22T17:32:49.469Z,5.90
2023-06-22T17:35:16.721Z,5.35
2023-06-22T17:37:57.688Z,5.30
2023-06-22T17:40:27.317Z,5.80
2023-06-22T17:43:06.069Z,5.45
2023-06-22T17:45:33.609Z,4.88
2023-06-22T17:48:00.757Z,5.35
2023-06-22T17:50:27.810Z,5.72
2023-06-22T17:52:56.802Z,5.72
2023-06-22T17:55:24.458Z,5.53
2023-06-22T17:57:58.135Z,6.57
2023-06-22T18:00:28.857Z,6.13
2023-06-22T18:02:56.452Z,5.63
2023-06-22T18:05:34.287Z,6.13
2023-06-22T18:08:04.069Z,5.97
2023-06-22T18:10:37.468Z,6.25
2023-06-22T18:13:05.748Z,6.47
2023-06-22T18:15:33.716Z,6.03
2023-06-22T18:18:01.240Z,6.25
2023-06-22T18:20:29.733Z,6.82
2023-06-22T18:22:59.922Z,7.25
2023-06-22T18:25:26.960Z,6.93
2023-06-22T18:27:54.007Z,6.97
2023-06-22T18:30:21.082Z,6.10
2023-06-22T18:32:49.909Z,6.45
2023-06-22T18:35:17.072Z,6.80
2023-06-22T18:37:46.089Z,6.70
2023-06-22T18:40:16.353Z,7.80
2023-06-22T18:42:47.176Z,6.30
2023-06-22T18:45:30.381Z,6.10
2023-06-22T18:48:02.497Z,6.95
2023-06-22T18:50:44.841Z,6.85
2023-06-22T18:53:16.097Z,7.70
2023-06-22T18:55:44.597Z,8.43
2023-06-22T18:58:20.732Z,7.55
2023-06-22T19:00:48.158Z,7.78
2023-06-22T19:03:32.245Z,7.13
2023-06-22T19:05:59.522Z,6.28
2023-06-22T19:08:27.980Z,6.38
2023-06-22T19:10:55.083Z,6.90
2023-06-22T19:13:22.170Z,6.15
2023-06-22T19:16:22.444Z,5.75
2023-06-22T19:18:50.745Z,4.40
2023-06-22T19:21:23.055Z,4.82
2023-06-22T19:23:50.267Z,4.78
2023-06-22T19:26:18.806Z,4.60
2023-06-22T19:28:46.756Z,4.18
2023-06-22T19:31:13.930Z,4.43
2023-06-22T19:33:41.532Z,5.03
2023-06-22T19:36:08.663Z,4.38
2023-06-22T19:38:35.833Z,4.72
2023-06-22T19:41:03.106Z,5.15
2023-06-22T19:43:30.606Z,4.72
2023-06-22T19:45:58.206Z,4.95
2023-06-22T19:48:30.042Z,4.65
2023-06-22T19:51:07.437Z,4.72
2023-06-22T19:53:34.719Z,4.60
2023-06-22T19:56:02.642Z,5.45
2023-06-22T19:58:33.020Z,4.10
2023-06-22T20:01:03.265Z,4.97
2023-06-22T20:03:31.877Z,3.67
2023-06-22T20:06:13.217Z,3.90
2023-06-22T20:08:45.156Z,4.53
2023-06-22T20:11:12.458Z,4.13
2023-06-22T20:13:49.243Z,5.38
2023-06-22T20:16:17.369Z,4.25
2023-06-22T20:18:45.719Z,5.22
2023-06-22T20:21:13.670Z,3.92
2023-06-22T20:23:43.962Z,4.45
2023-06-22T20:26:11.644Z,5.95
2023-06-22T20:28:39.466Z,4.95
2023-06-22T20:31:07.533Z,5.80
2023-06-22T20:33:34.885Z,4.60
2023-06-22T20:36:02.025Z,3.90
2023-06-22T20:38:29.531Z,3.85
2023-06-22T20:40:57.196Z,3.97
2023-06-22T20:43:25.137Z,4.47
2023-06-22T20:45:55.598Z,4.40
2023-06-22T20:48:37.829Z,4.05
2023-06-22T20:51:06.363Z,4.57
2023-06-22T20:53:33.593Z,4.13
2023-06-22T20:56:00.928Z,4.40
2023-06-22T20:58:27.994Z,4.35
2023-06-22T21:00:56.248Z,4.07
2023-06-22T21:03:23.535Z,4.35
2023-06-22T21:05:50.701Z,4.40
2023-06-22T21:08:18.116Z,4.43
2023-06-22T21:10:45.266Z,4.05
2023-06-22T21:13:12.554Z,4.68
2023-06-22T21:15:39.620Z,4.28
2023-06-22T21:18:06.827Z,3.67
2023-06-22T21:20:33.899Z,3.90
2023-06-22T21:23:01.131Z,4.13
2023-06-22T21:25:28.258Z,4.40
2023-06-22T21:27:55.301Z,3.97
2023-06-22T21:30:22.506Z,4.25
2023-06-22T21:32:50.151Z,4.35
2023-06-22T21:35:17.373Z,4.32
2023-06-22T21:37:45.985Z,4.00
2023-06-22T21:40:13.357Z,4.00
2023-06-22T21:42:40.869Z,4.35
2023-06-22T21:45:08.272Z,4.43
2023-06-22T21:47:35.443Z,4.22
2023-06-22T21:50:02.504Z,5.72
2023-06-22T21:52:30.969Z,3.95
2023-06-22T21:54:58.394Z,4.10
2023-06-22T21:57:28.895Z,4.25
2023-06-22T21:59:56.406Z,3.75
